createdAt,value
2023-04-21T00:01:41.423Z,6.73
2023-04-21T00:04:09.713Z,6.97
2023-04-21T00:06:36.657Z,7.10
2023-04-21T00:09:05.414Z,7.07
2023-04-21T00:11:31.839Z,6.83
2023-04-21T00:13:58.183Z,6.97
2023-04-21T00:16:24.622Z,7.23
2023-04-21T00:18:50.960Z,6.90
2023-04-21T00:21:18.544Z,7.47
2023-04-21T00:23:44.859Z,7.40
2023-04-21T00:26:11.274Z,7.93
2023-04-21T00:28:37.615Z,8.17
2023-04-21T00:31:03.981Z,7.70
2023-04-21T00:33:30.265Z,7.30
2023-04-21T00:35:59.022Z,7.97
2023-04-21T00:38:25.396Z,7.43
2023-04-21T00:40:51.692Z,7.33
2023-04-21T00:43:18.170Z,7.13
2023-04-21T00:45:47.368Z,7.70
2023-04-21T00:48:13.773Z,7.10
2023-04-21T00:50:40.089Z,7.60
2023-04-21T00:53:06.609Z,7.17
2023-04-21T00:55:32.903Z,8.53
2023-04-21T00:57:59.345Z,8.00
2023-04-21T01:00:25.618Z,7.87
2023-04-21T01:02:52.078Z,7.53
2023-04-21T01:05:18.840Z,8.40
2023-04-21T01:07:45.405Z,8.73
2023-04-21T01:10:11.895Z,7.93
2023-04-21T01:12:47.591Z,8.73
2023-04-21T01:15:15.076Z,8.47
2023-04-21T01:17:41.763Z,8.60
2023-04-21T01:20:09.056Z,8.67
2023-04-21T01:22:37.450Z,9.17
2023-04-21T01:25:04.122Z,8.97
2023-04-21T01:27:30.420Z,8.50
2023-04-21T01:29:56.912Z,8.83
2023-04-21T01:32:24.754Z,9.03
2023-04-21T01:34:51.376Z,9.67
2023-04-21T01:37:19.141Z,9.57
2023-04-21T01:39:47.295Z,8.87
2023-04-21T01:42:13.825Z,9.07
2023-04-21T01:44:40.227Z,9.37
2023-04-21T01:47:06.946Z,9.67
2023-04-21T01:49:33.221Z,9.53
2023-04-21T01:51:59.514Z,9.40
2023-04-21T01:54:25.989Z,9.90
2023-04-21T01:56:52.351Z,9.57
2023-04-21T01:59:19.063Z,9.53
2023-04-21T02:01:45.717Z,11.20
2023-04-21T02:04:12.086Z,9.73
2023-04-21T02:06:38.475Z,11.07
2023-04-21T02:09:04.805Z,10.50
2023-04-21T02:11:31.176Z,12.30
2023-04-21T02:13:57.508Z,11.13
2023-04-21T02:16:26.959Z,11.80
2023-04-21T02:18:55.114Z,12.03
2023-04-21T02:21:21.712Z,12.77
2023-04-21T02:23:48.064Z,12.17
2023-04-21T02:26:14.326Z,12.07
2023-04-21T02:28:40.609Z,12.43
2023-04-21T02:31:07.088Z,10.87
2023-04-21T02:33:33.474Z,10.63
2023-04-21T02:35:59.747Z,10.60
2023-04-21T02:38:26.042Z,10.53
2023-04-21T02:40:52.286Z,10.97
2023-04-21T02:43:18.695Z,10.73
2023-04-21T02:45:44.968Z,10.63
2023-04-21T02:48:12.029Z,10.23
2023-04-21T02:50:38.373Z,10.10
2023-04-21T02:53:04.812Z,10.97
2023-04-21T02:55:31.386Z,11.20
2023-04-21T02:57:58.785Z,10.17
2023-04-21T03:00:25.072Z,10.23
2023-04-21T03:02:53.376Z,10.63
2023-04-21T03:05:19.923Z,10.90
2023-04-21T03:07:46.401Z,10.20
2023-04-21T03:10:12.738Z,10.20
2023-04-21T03:12:38.993Z,10.90
2023-04-21T03:15:05.763Z,10.93
2023-04-21T03:17:33.302Z,10.47
2023-04-21T03:19:59.887Z,10.53
2023-04-21T03:22:26.160Z,10.97
2023-04-21T03:24:52.437Z,11.20
2023-04-21T03:27:18.772Z,11.33
2023-04-21T03:29:45.242Z,11.53
2023-04-21T03:32:11.559Z,10.77
2023-04-21T03:34:37.859Z,11.00
2023-04-21T03:37:04.146Z,10.80
2023-04-21T03:39:30.746Z,11.30
2023-04-21T03:41:57.807Z,11.20
2023-04-21T03:44:28.960Z,11.50
2023-04-21T03:46:55.489Z,11.10
2023-04-21T03:49:21.910Z,10.80
2023-04-21T03:51:48.242Z,11.40
2023-04-21T03:54:14.516Z,10.67
2023-04-21T03:56:40.815Z,11.87
2023-04-21T03:59:07.150Z,10.70
2023-04-21T04:01:34.596Z,11.53
2023-04-21T04:04:01.091Z,11.43
2023-04-21T04:06:28.481Z,11.00
2023-04-21T04:08:54.818Z,11.67
2023-04-21T04:11:21.056Z,11.57
2023-04-21T04:13:47.418Z,13.20
2023-04-21T04:16:13.750Z,11.63
2023-04-21T04:18:40.034Z,12.20
2023-04-21T04:21:07.383Z,11.63
2023-04-21T04:23:34.065Z,11.20
2023-04-21T04:26:01.639Z,12.10
2023-04-21T04:28:28.218Z,11.77
2023-04-21T04:30:55.325Z,11.73
2023-04-21T04:33:21.642Z,11.47
2023-04-21T04:35:47.956Z,12.13
2023-04-21T04:38:17.282Z,11.80
2023-04-21T04:40:43.638Z,12.07
2023-04-21T04:43:11.846Z,11.70
2023-04-21T04:45:38.955Z,11.83
2023-04-21T04:48:05.422Z,11.67
2023-04-21T04:50:31.692Z,12.50
2023-04-21T04:52:57.948Z,11.67
2023-04-21T04:55:25.704Z,12.23
2023-04-21T04:57:52.203Z,11.67
2023-04-21T05:00:18.756Z,12.87
2023-04-21T05:02:45.271Z,12.70
2023-04-21T05:05:11.787Z,12.10
2023-04-21T05:07:38.149Z,11.63
2023-04-21T05:10:04.715Z,11.57
2023-04-21T05:12:32.228Z,12.10
2023-04-21T05:14:58.536Z,11.90
2023-04-21T05:17:24.885Z,11.37
2023-04-21T05:19:51.424Z,11.73
2023-04-21T05:22:17.695Z,11.77
2023-04-21T05:24:44.109Z,13.00
2023-04-21T05:27:10.432Z,11.93
2023-04-21T05:29:36.866Z,11.67
2023-04-21T05:32:03.481Z,11.67
2023-04-21T05:34:29.789Z,11.80
2023-04-21T05:36:56.021Z,11.17
2023-04-21T05:39:22.278Z,11.40
2023-04-21T05:41:48.592Z,11.90
2023-04-21T05:44:16.637Z,12.03
2023-04-21T05:46:43.055Z,11.70
2023-04-21T05:49:09.358Z,11.53
2023-04-21T05:51:35.658Z,12.43
2023-04-21T05:54:01.897Z,11.77
2023-04-21T05:56:28.194Z,12.30
2023-04-21T05:58:54.495Z,11.77
2023-04-21T06:01:20.820Z,11.37
2023-04-21T06:03:50.219Z,11.37
2023-04-21T06:06:17.588Z,11.70
2023-04-21T06:08:43.945Z,10.90
2023-04-21T06:11:10.389Z,10.50
2023-04-21T06:13:38.530Z,11.03
2023-04-21T06:16:05.570Z,10.73
2023-04-21T06:18:31.850Z,10.40
2023-04-21T06:20:58.128Z,10.40
2023-04-21T06:23:24.427Z,10.27
2023-04-21T06:26:01.283Z,10.50
2023-04-21T06:28:27.654Z,10.00
2023-04-21T06:30:53.935Z,10.77
2023-04-21T06:33:20.346Z,10.57
2023-04-21T06:35:46.635Z,10.90
2023-04-21T06:38:12.918Z,10.30
2023-04-21T06:40:39.169Z,10.00
2023-04-21T06:43:05.450Z,10.17
2023-04-21T06:45:31.698Z,9.77
2023-04-21T06:47:57.996Z,9.80
2023-04-21T06:50:24.345Z,8.88
2023-04-21T06:52:51.197Z,8.77
2023-04-21T06:55:17.597Z,8.80
2023-04-21T06:57:44.070Z,9.30
2023-04-21T07:00:10.609Z,8.57
2023-04-21T07:02:37.023Z,8.55
2023-04-21T07:05:03.595Z,8.20
2023-04-21T07:07:29.866Z,8.82
2023-04-21T07:09:56.105Z,8.32
2023-04-21T07:12:22.528Z,8.30
2023-04-21T07:14:48.795Z,8.45
2023-04-21T07:17:15.283Z,7.88
2023-04-21T07:19:41.533Z,8.45
2023-04-21T07:22:08.059Z,8.13
2023-04-21T07:24:35.505Z,7.82
2023-04-21T07:27:02.679Z,7.82
2023-04-21T07:29:29.020Z,8.55
2023-04-21T07:31:56.194Z,8.07
2023-04-21T07:34:22.508Z,7.55
2023-04-21T07:36:48.817Z,8.15
2023-04-21T07:39:15.080Z,7.68
2023-04-21T07:41:41.365Z,8.50
2023-04-21T07:44:07.622Z,8.32
2023-04-21T07:46:33.932Z,8.63
2023-04-21T07:49:02.788Z,8.73
2023-04-21T07:51:32.014Z,8.68
2023-04-21T07:53:58.469Z,8.60
2023-04-21T07:56:24.786Z,9.52
2023-04-21T07:58:51.113Z,9.88
2023-04-21T08:01:17.934Z,9.18
2023-04-21T08:03:44.374Z,9.20
2023-04-21T08:06:11.237Z,9.38
2023-04-21T08:08:37.711Z,9.38
2023-04-21T08:11:04.257Z,9.73
2023-04-21T08:13:32.161Z,9.57
2023-04-21T08:15:58.546Z,8.83
2023-04-21T08:18:24.866Z,10.10
2023-04-21T08:20:52.591Z,9.67
2023-04-21T08:23:19.851Z,9.10
2023-04-21T08:25:46.287Z,9.70
2023-04-21T08:28:12.611Z,9.37
2023-04-21T08:30:38.976Z,9.20
2023-04-21T08:33:05.338Z,9.20
2023-04-21T08:35:31.699Z,8.93
2023-04-21T08:37:58.018Z,8.53
2023-04-21T08:40:29.019Z,9.17
2023-04-21T08:42:56.441Z,9.17
2023-04-21T08:45:23.932Z,9.20
2023-04-21T08:47:50.620Z,8.40
2023-04-21T08:50:17.034Z,8.80
2023-04-21T08:52:43.351Z,9.43
2023-04-21T08:55:09.826Z,9.00
2023-04-21T08:57:36.206Z,8.83
2023-04-21T09:00:03.940Z,7.93
2023-04-21T09:02:32.556Z,8.47
2023-04-21T09:05:00.073Z,8.67
2023-04-21T09:07:34.066Z,8.47
2023-04-21T09:10:00.696Z,8.97
2023-04-21T09:12:27.749Z,8.67
2023-04-21T09:14:56.977Z,8.73
2023-04-21T09:17:28.709Z,8.60
2023-04-21T09:19:55.060Z,7.93
2023-04-21T09:22:27.095Z,8.27
2023-04-21T09:25:02.692Z,8.90
2023-04-21T09:27:28.965Z,8.47
2023-04-21T09:29:55.734Z,7.93
2023-04-21T09:32:22.049Z,8.73
2023-04-21T09:34:48.372Z,8.17
2023-04-21T09:37:18.052Z,8.43
2023-04-21T09:39:53.133Z,8.27
2023-04-21T09:42:35.029Z,8.10
2023-04-21T09:45:20.485Z,8.87
2023-04-21T09:47:54.569Z,8.37
2023-04-21T09:50:41.884Z,8.77
2023-04-21T09:53:12.100Z,8.27
2023-04-21T09:55:38.847Z,8.13
2023-04-21T09:58:06.650Z,7.70
2023-04-21T10:00:33.477Z,8.17
2023-04-21T10:03:00.861Z,7.73
2023-04-21T10:05:28.271Z,7.00
2023-04-21T10:07:54.811Z,7.57
2023-04-21T10:10:28.310Z,8.13
2023-04-21T10:12:54.923Z,7.73
2023-04-21T10:15:35.613Z,8.00
2023-04-21T10:18:16.233Z,8.27
2023-04-21T10:20:57.661Z,7.17
2023-04-21T10:23:29.958Z,7.70
2023-04-21T10:26:09.238Z,7.50
2023-04-21T10:28:47.836Z,7.57
2023-04-21T10:31:19.033Z,7.73
2023-04-21T10:34:04.379Z,7.23
2023-04-21T10:36:30.860Z,7.03
2023-04-21T10:39:00.964Z,7.07
2023-04-21T10:41:28.097Z,7.57
2023-04-21T10:43:54.355Z,7.20
2023-04-21T10:46:33.815Z,7.50
2023-04-21T10:49:06.209Z,7.47
2023-04-21T10:51:35.402Z,7.23
2023-04-21T10:54:04.708Z,7.33
2023-04-21T10:56:31.112Z,7.63
2023-04-21T10:58:58.198Z,7.27
2023-04-21T11:01:24.861Z,7.13
2023-04-21T11:03:51.577Z,7.37
2023-04-21T11:06:18.523Z,7.13
2023-04-21T11:08:57.743Z,7.20
2023-04-21T11:11:24.331Z,6.83
2023-04-21T11:13:52.332Z,6.80
2023-04-21T11:16:20.017Z,6.83
2023-04-21T11:18:46.499Z,7.17
2023-04-21T11:21:24.475Z,6.40
2023-04-21T11:23:52.055Z,7.83
2023-04-21T11:26:18.601Z,7.40
2023-04-21T11:28:47.396Z,6.87
2023-04-21T11:31:13.949Z,7.23
2023-04-21T11:33:40.598Z,7.00
2023-04-21T11:36:07.700Z,7.13
2023-04-21T11:38:37.726Z,6.70
2023-04-21T11:41:04.082Z,6.80
2023-04-21T11:43:30.534Z,7.20
2023-04-21T11:46:11.076Z,7.00
2023-04-21T11:48:37.353Z,6.90
2023-04-21T11:51:03.736Z,7.10
2023-04-21T11:53:30.077Z,6.70
2023-04-21T11:55:56.919Z,7.40
2023-04-21T11:58:23.615Z,6.80
2023-04-21T12:00:50.721Z,6.80
2023-04-21T12:03:19.437Z,6.73
2023-04-21T12:05:45.808Z,6.77
2023-04-21T12:08:15.609Z,6.90
2023-04-21T12:10:45.866Z,6.67
2023-04-21T12:13:12.393Z,7.17
2023-04-21T12:15:38.923Z,7.23
2023-04-21T12:18:12.236Z,7.07
2023-04-21T12:20:38.607Z,7.40
2023-04-21T12:23:04.868Z,6.93
2023-04-21T12:25:31.797Z,6.53
2023-04-21T12:27:58.902Z,6.97
2023-04-21T12:30:25.391Z,7.67
2023-04-21T12:32:52.487Z,7.00
2023-04-21T12:35:18.864Z,7.17
2023-04-21T12:37:45.538Z,7.47
2023-04-21T12:40:11.852Z,7.50
2023-04-21T12:42:38.589Z,6.90
2023-04-21T12:45:05.445Z,6.70
2023-04-21T12:47:31.762Z,7.00
2023-04-21T12:49:58.122Z,6.90
2023-04-21T12:52:24.506Z,6.17
2023-04-21T12:54:50.934Z,6.87
2023-04-21T12:57:17.642Z,7.00
2023-04-21T12:59:46.191Z,6.57
2023-04-21T13:02:12.903Z,6.57
2023-04-21T13:04:42.013Z,6.60
2023-04-21T13:07:08.526Z,6.43
2023-04-21T13:09:34.853Z,6.20
2023-04-21T13:12:01.980Z,6.40
2023-04-21T13:14:28.318Z,6.70
2023-04-21T13:16:54.664Z,6.47
2023-04-21T13:19:20.992Z,5.90
2023-04-21T13:21:47.983Z,6.07
2023-04-21T13:24:14.904Z,6.27
2023-04-21T13:26:41.509Z,6.60
2023-04-21T13:29:07.913Z,6.47
2023-04-21T13:31:34.224Z,5.63
2023-04-21T13:34:01.205Z,6.37
2023-04-21T13:36:27.547Z,6.10
2023-04-21T13:38:55.689Z,6.13
2023-04-21T13:41:22.730Z,6.20
2023-04-21T13:43:49.352Z,6.00
2023-04-21T13:46:15.732Z,6.10
2023-04-21T13:48:42.183Z,5.87
2023-04-21T13:51:08.540Z,6.57
2023-04-21T13:53:34.819Z,5.77
2023-04-21T13:56:01.137Z,6.30
2023-04-21T13:58:28.468Z,5.73
2023-04-21T14:00:54.927Z,6.30
2023-04-21T14:03:21.513Z,5.93
2023-04-21T14:05:48.120Z,6.07
2023-04-21T14:08:14.586Z,6.00
2023-04-21T14:10:40.934Z,5.97
2023-04-21T14:13:07.534Z,6.13
2023-04-21T14:15:33.867Z,6.30
2023-04-21T14:18:00.567Z,5.93
2023-04-21T14:20:27.048Z,6.00
2023-04-21T14:22:53.351Z,5.70
2023-04-21T14:25:19.710Z,6.43
2023-04-21T14:27:46.139Z,6.47
2023-04-21T14:30:13.149Z,5.60
2023-04-21T14:32:45.205Z,5.90
2023-04-21T14:35:12.141Z,6.03
2023-04-21T14:37:39.076Z,6.00
2023-04-21T14:40:07.308Z,5.80
2023-04-21T14:42:33.806Z,6.00
2023-04-21T14:45:00.176Z,6.07
2023-04-21T14:47:27.061Z,5.60
2023-04-21T14:49:55.563Z,5.80
2023-04-21T14:52:24.625Z,5.87
2023-04-21T14:54:51.238Z,5.43
2023-04-21T14:57:21.047Z,5.87
2023-04-21T14:59:51.599Z,6.23
2023-04-21T15:02:19.088Z,6.00
2023-04-21T15:04:45.704Z,5.80
2023-04-21T15:07:12.484Z,5.83
2023-04-21T15:09:46.519Z,5.60
2023-04-21T15:12:16.016Z,5.60
2023-04-21T15:14:42.338Z,6.10
2023-04-21T15:17:08.691Z,5.67
2023-04-21T15:19:35.381Z,6.17
2023-04-21T15:22:02.685Z,5.50
2023-04-21T15:24:28.941Z,5.57
2023-04-21T15:26:55.584Z,5.43
2023-04-21T15:29:21.900Z,5.63
2023-04-21T15:38:06.660Z,5.73
2023-04-21T15:40:33.005Z,5.60
2023-04-21T15:42:59.315Z,5.43
2023-04-21T15:45:26.564Z,5.90
2023-04-21T15:47:53.660Z,5.70
2023-04-21T15:50:20.121Z,5.60
2023-04-21T15:52:46.506Z,5.23
2023-04-21T15:55:12.831Z,5.50
2023-04-21T15:57:39.228Z,5.47
2023-04-21T16:00:05.946Z,5.80
2023-04-21T16:02:32.345Z,5.77
2023-04-21T16:04:58.799Z,5.80
2023-04-21T16:07:26.371Z,5.50
2023-04-21T16:09:52.722Z,5.77
2023-04-21T16:12:19.029Z,5.70
2023-04-21T16:14:55.649Z,5.20
2023-04-21T16:17:27.592Z,5.63
2023-04-21T16:19:54.263Z,5.60
2023-04-21T16:22:20.709Z,6.13
2023-04-21T16:24:47.212Z,5.53
2023-04-21T16:27:13.490Z,6.00
2023-04-21T16:29:39.869Z,5.43
2023-04-21T16:32:06.925Z,5.33
2023-04-21T16:34:33.260Z,5.20
2023-04-21T16:36:59.520Z,5.50
2023-04-21T16:39:25.930Z,5.20
2023-04-21T16:41:52.228Z,5.27
2023-04-21T16:44:18.670Z,4.93
2023-04-21T16:46:45.014Z,5.00
2023-04-21T16:49:12.765Z,5.10
2023-04-21T16:51:44.422Z,5.50
2023-04-21T16:54:14.145Z,5.17
2023-04-21T16:56:40.460Z,5.33
2023-04-21T16:59:06.855Z,5.03
2023-04-21T17:01:33.235Z,5.13
2023-04-21T17:03:59.771Z,5.47
2023-04-21T17:06:26.218Z,5.00
2023-04-21T17:08:59.435Z,5.20
2023-04-21T17:11:27.077Z,5.13
2023-04-21T17:13:54.664Z,5.47
2023-04-21T17:16:21.003Z,5.03
2023-04-21T17:18:47.352Z,4.90
2023-04-21T17:21:13.672Z,4.37
2023-04-21T17:23:39.924Z,4.77
2023-04-21T17:26:06.487Z,5.33
2023-04-21T17:28:32.901Z,5.00
2023-04-21T17:31:13.670Z,4.60
2023-04-21T17:33:42.179Z,4.53
2023-04-21T17:36:08.628Z,4.97
2023-04-21T17:38:35.030Z,4.80
2023-04-21T17:41:02.010Z,5.13
2023-04-21T17:43:28.302Z,4.40
2023-04-21T17:45:54.607Z,4.53
2023-04-21T17:48:21.248Z,4.70
2023-04-21T17:50:47.554Z,4.20
2023-04-21T17:53:13.851Z,4.90
2023-04-21T17:55:40.298Z,4.63
2023-04-21T17:58:06.609Z,4.90
2023-04-21T18:00:34.357Z,4.97
2023-04-21T18:03:02.029Z,4.83
2023-04-21T18:05:29.005Z,5.40
2023-04-21T18:07:55.850Z,4.87
2023-04-21T18:10:22.550Z,4.67
2023-04-21T18:12:48.852Z,4.90
2023-04-21T18:15:15.122Z,4.77
2023-04-21T18:17:41.495Z,4.83
2023-04-21T18:23:16.409Z,5.17
2023-04-21T18:25:43.345Z,5.00
2023-04-21T18:28:11.451Z,4.50
2023-04-21T18:30:38.462Z,5.07
2023-04-21T18:33:05.145Z,4.70
2023-04-21T18:35:33.813Z,4.90
2023-04-21T18:38:00.114Z,4.60
2023-04-21T18:40:26.417Z,4.53
2023-04-21T18:42:52.724Z,4.73
2023-04-21T18:45:18.988Z,5.17
2023-04-21T18:47:46.092Z,4.93
2023-04-21T18:50:12.369Z,4.90
2023-04-21T18:52:38.634Z,5.10
2023-04-21T18:55:06.080Z,4.83
2023-04-21T18:57:32.406Z,5.10
2023-04-21T19:00:00.300Z,5.23
2023-04-21T19:02:26.834Z,5.50
2023-04-21T19:04:53.288Z,5.50
2023-04-21T19:07:19.634Z,5.87
2023-04-21T19:09:46.020Z,5.47
2023-04-21T19:12:12.338Z,4.97
2023-04-21T19:14:46.620Z,5.47
2023-04-21T19:17:14.190Z,5.60
2023-04-21T19:19:40.721Z,4.83
2023-04-21T19:22:07.054Z,5.43
2023-04-21T19:24:33.469Z,5.07
2023-04-21T19:27:01.598Z,5.07
2023-04-21T19:29:28.346Z,5.27
2023-04-21T19:31:54.866Z,5.33
2023-04-21T19:34:21.513Z,5.17
2023-04-21T19:36:49.128Z,5.30
2023-04-21T19:39:15.414Z,5.67
2023-04-21T19:41:41.662Z,5.70
2023-04-21T19:44:07.939Z,5.63
2023-04-21T19:46:34.330Z,5.37
2023-04-21T19:49:00.744Z,5.50
2023-04-21T19:51:27.894Z,5.23
2023-04-21T19:54:09.996Z,4.97
2023-04-21T19:56:38.156Z,5.03
2023-04-21T19:59:05.662Z,5.23
2023-04-21T20:01:32.527Z,5.60
2023-04-21T20:03:59.756Z,5.10
2023-04-21T20:06:26.973Z,5.17
2023-04-21T20:08:53.278Z,5.77
2023-04-21T20:11:19.556Z,5.60
2023-04-21T20:13:45.873Z,5.43
2023-04-21T20:16:12.231Z,5.50
2023-04-21T20:18:38.966Z,5.90
2023-04-21T20:21:06.753Z,5.57
2023-04-21T20:23:33.035Z,5.83
2023-04-21T20:25:59.307Z,5.60
2023-04-21T20:28:27.532Z,5.60
2023-04-21T20:30:53.828Z,5.47
2023-04-21T20:33:20.070Z,5.77
2023-04-21T20:35:46.309Z,5.70
2023-04-21T20:38:12.557Z,5.50
2023-04-21T20:40:39.418Z,5.93
2023-04-21T20:43:06.388Z,6.03
2023-04-21T20:45:33.439Z,5.93
2023-04-21T20:47:59.979Z,5.77
2023-04-21T20:50:26.804Z,5.83
2023-04-21T20:52:53.134Z,6.10
2023-04-21T20:55:19.465Z,5.73
2023-04-21T20:57:45.920Z,5.70
2023-04-21T21:00:13.115Z,5.77
2023-04-21T21:02:40.931Z,6.10
2023-04-21T21:05:07.528Z,6.00
2023-04-21T21:07:33.855Z,5.60
2023-04-21T21:10:00.225Z,5.63
2023-04-21T21:12:26.699Z,6.00
2023-04-21T21:14:52.965Z,6.50
2023-04-21T21:17:19.292Z,6.30
2023-04-21T21:19:45.620Z,5.70
2023-04-21T21:22:11.909Z,5.87
2023-04-21T21:24:38.180Z,6.00
2023-04-21T21:27:04.481Z,6.10
2023-04-21T21:29:30.789Z,6.23
2023-04-21T21:31:57.825Z,6.27
2023-04-21T21:34:24.115Z,5.97
2023-04-21T21:36:50.591Z,6.20
2023-04-21T21:39:16.887Z,5.90
2023-04-21T21:41:43.141Z,6.03
2023-04-21T21:44:10.373Z,5.90
2023-04-21T21:46:36.761Z,5.93
2023-04-21T21:49:03.222Z,6.03
2023-04-21T21:51:29.478Z,5.80
2023-04-21T21:53:55.752Z,6.07
2023-04-21T21:56:23.929Z,6.07
2023-04-21T21:58:50.536Z,6.30
2023-04-21T22:01:18.198Z,6.50
2023-04-21T22:03:44.929Z,6.17
2023-04-21T22:06:12.909Z,6.23
2023-04-21T22:08:40.061Z,6.50
2023-04-21T22:11:06.395Z,6.30
2023-04-21T22:13:32.644Z,6.47
2023-04-21T22:15:59.044Z,6.10
2023-04-21T22:18:25.545Z,6.27
2023-04-21T22:20:51.778Z,6.30
2023-04-21T22:23:19.809Z,5.60
2023-04-21T22:25:46.719Z,7.10
2023-04-21T22:28:13.102Z,6.33
2023-04-21T22:30:39.359Z,5.70
2023-04-21T22:33:05.734Z,6.50
2023-04-21T22:35:32.055Z,6.53
2023-04-21T22:37:58.358Z,6.67
2023-04-21T22:40:24.660Z,6.17
2023-04-21T22:42:50.950Z,6.37
2023-04-21T22:45:17.310Z,6.73
2023-04-21T22:47:43.580Z,6.30
2023-04-21T22:50:10.230Z,6.17
2023-04-21T22:52:36.530Z,6.90
2023-04-21T22:55:03.851Z,6.50
2023-04-21T22:57:30.156Z,6.70
2023-04-21T22:59:56.409Z,6.80
2023-04-21T23:02:22.935Z,7.47
2023-04-21T23:04:49.399Z,6.50
2023-04-21T23:07:15.652Z,6.97
2023-04-21T23:09:41.942Z,7.43
2023-04-21T23:12:08.208Z,7.27
2023-04-21T23:14:34.497Z,7.00
2023-04-21T23:17:00.849Z,7.00
2023-04-21T23:19:27.257Z,6.77
2023-04-21T23:21:53.609Z,7.00
2023-04-21T23:24:19.960Z,7.57
2023-04-21T23:26:46.224Z,7.10
2023-04-21T23:29:12.791Z,6.93
2023-04-21T23:31:39.178Z,7.10
2023-04-21T23:34:05.647Z,7.20
2023-04-21T23:36:32.010Z,6.57
2023-04-21T23:38:58.434Z,6.70
2023-04-21T23:41:24.800Z,6.53
2023-04-21T23:43:51.121Z,7.30
2023-04-21T23:46:17.385Z,6.90
2023-04-21T23:48:43.658Z,7.50
2023-04-21T23:51:10.327Z,7.27
2023-04-21T23:53:36.672Z,7.13
2023-04-21T23:56:03.247Z,6.70
2023-04-21T23:58:29.594Z,6.70
